sensor_id;sensor_type;location;lat;lon;timestamp;pressure;altitude;pressure_sealevel;temperature;humidity
55301;BME280;58302;51.446;-2.000;2023-04-21T00:01:03;100983.59;;;4.80;100.00
55301;BME280;58302;51.446;-2.000;2023-04-21T00:03:33;100984.19;;;4.82;100.00
55301;BME280;58302;51.446;-2.000;2023-04-21T00:06:03;100980.63;;;4.88;100.00
55301;BME280;58302;51.446;-2.000;2023-04-21T00:08:31;100985.63;;;4.85;100.00
55301;BME280;58302;51.446;-2.000;2023-04-21T00:10:57;100980.66;;;4.82;100.00
55301;BME280;58302;51.446;-2.000;2023-04-21T00:13:26;100972.00;;;4.80;100.00
55301;BME280;58302;51.446;-2.000;2023-04-21T00:15:52;100972.59;;;4.82;100.00
55301;BME280;58302;51.446;-2.000;2023-04-21T00:18:18;100966.00;;;4.71;100.00
55301;BME280;58302;51.446;-2.000;2023-04-21T00:20:44;100952.41;;;4.59;100.00
55301;BME280;58302;51.446;-2.000;2023-04-21T00:23:09;100954.28;;;4.59;100.00
55301;BME280;58302;51.446;-2.000;2023-04-21T00:25:36;100955.88;;;4.66;100.00
55301;BME280;58302;51.446;-2.000;2023-04-21T00:28:02;100951.72;;;4.70;100.00
55301;BME280;58302;51.446;-2.000;2023-04-21T00:30:28;100948.41;;;4.75;100.00
55301;BME280;58302;51.446;-2.000;2023-04-21T00:32:54;100948.59;;;4.80;100.00
55301;BME280;58302;51.446;-2.000;2023-04-21T00:35:20;100939.91;;;4.78;100.00
55301;BME280;58302;51.446;-2.000;2023-04-21T00:37:46;100938.50;;;4.69;100.00
55301;BME280;58302;51.446;-2.000;2023-04-21T00:40:14;100931.28;;;4.63;100.00
55301;BME280;58302;51.446;-2.000;2023-04-21T00:42:40;100922.75;;;4.66;100.00
55301;BME280;58302;51.446;-2.000;2023-04-21T00:45:06;100923.38;;;4.68;100.00
55301;BME280;58302;51.446;-2.000;2023-04-21T00:47:32;100923.19;;;4.63;100.00
55301;BME280;58302;51.446;-2.000;2023-04-21T00:49:59;100936.66;;;4.63;100.00
55301;BME280;58302;51.446;-2.000;2023-04-21T00:52:26;100936.03;;;4.61;100.00
55301;BME280;58302;51.446;-2.000;2023-04-21T00:54:52;100929.84;;;4.54;100.00
55301;BME280;58302;51.446;-2.000;2023-04-21T00:57:19;100927.72;;;4.69;100.00
55301;BME280;58302;51.446;-2.000;2023-04-21T00:59:45;100925.00;;;4.75;100.00
55301;BME280;58302;51.446;-2.000;2023-04-21T01:02:17;100928.03;;;4.86;100.00
55301;BME280;58302;51.446;-2.000;2023-04-21T01:04:44;100918.22;;;4.98;100.00
55301;BME280;58302;51.446;-2.000;2023-04-21T01:07:10;100917.00;;;5.00;100.00
55301;BME280;58302;51.446;-2.000;2023-04-21T01:09:36;100924.56;;;5.10;100.00
55301;BME280;58302;51.446;-2.000;2023-04-21T01:14:29;100915.59;;;5.23;100.00
55301;BME280;58302;51.446;-2.000;2023-04-21T01:16:56;100917.00;;;5.25;100.00
55301;BME280;58302;51.446;-2.000;2023-04-21T01:19:23;100912.44;;;5.26;100.00
55301;BME280;58302;51.446;-2.000;2023-04-21T01:21:52;100918.22;;;5.29;100.00
55301;BME280;58302;51.446;-2.000;2023-04-21T01:24:40;100911.78;;;5.31;100.00
55301;BME280;58302;51.446;-2.000;2023-04-21T01:27:11;100908.28;;;5.30;100.00
55301;BME280;58302;51.446;-2.000;2023-04-21T01:29:38;100897.44;;;5.37;100.00
55301;BME280;58302;51.446;-2.000;2023-04-21T01:32:07;100894.31;;;5.40;100.00
55301;BME280;58302;51.446;-2.000;2023-04-21T01:34:33;100888.47;;;5.43;100.00
55301;BME280;58302;51.446;-2.000;2023-04-21T01:36:59;100878.97;;;5.40;100.00
55301;BME280;58302;51.446;-2.000;2023-04-21T01:39:25;100882.03;;;5.44;100.00
55301;BME280;58302;51.446;-2.000;2023-04-21T01:41:52;100867.72;;;5.43;100.00
55301;BME280;58302;51.446;-2.000;2023-04-21T01:44:20;100868.53;;;5.44;100.00
55301;BME280;58302;51.446;-2.000;2023-04-21T01:46:46;100851.56;;;5.43;100.00
55301;BME280;58302;51.446;-2.000;2023-04-21T01:49:12;100858.44;;;5.39;100.00
55301;BME280;58302;51.446;-2.000;2023-04-21T01:51:37;100847.88;;;5.38;100.00
55301;BME280;58302;51.446;-2.000;2023-04-21T01:54:03;100842.13;;;5.34;100.00
55301;BME280;58302;51.446;-2.000;2023-04-21T01:56:30;100841.72;;;5.31;100.00
55301;BME280;58302;51.446;-2.000;2023-04-21T01:58:56;100839.91;;;5.24;100.00
55301;BME280;58302;51.446;-2.000;2023-04-21T02:01:22;100836.81;;;5.21;100.00
55301;BME280;58302;51.446;-2.000;2023-04-21T02:03:47;100841.44;;;5.14;100.00
55301;BME280;58302;51.446;-2.000;2023-04-21T02:06:13;100831.72;;;5.13;100.00
55301;BME280;58302;51.446;-2.000;2023-04-21T02:08:39;100828.81;;;5.14;100.00
55301;BME280;58302;51.446;-2.000;2023-04-21T02:11:05;100822.59;;;5.14;100.00
55301;BME280;58302;51.446;-2.000;2023-04-21T02:13:31;100828.97;;;5.19;100.00
55301;BME280;58302;51.446;-2.000;2023-04-21T02:15:57;100820.22;;;5.24;100.00
55301;BME280;58302;51.446;-2.000;2023-04-21T02:18:23;100823.53;;;5.26;100.00
55301;BME280;58302;51.446;-2.000;2023-04-21T02:20:50;100821.28;;;5.23;100.00
55301;BME280;58302;51.446;-2.000;2023-04-21T02:23:16;100813.56;;;5.26;100.00
55301;BME280;58302;51.446;-2.000;2023-04-21T02:25:42;100816.06;;;5.28;100.00
55301;BME280;58302;51.446;-2.000;2023-04-21T02:28:08;100806.91;;;5.29;100.00
55301;BME280;58302;51.446;-2.000;2023-04-21T02:30:34;100800.31;;;5.25;100.00
55301;BME280;58302;51.446;-2.000;2023-04-21T02:33:00;100801.97;;;5.26;100.00
55301;BME280;58302;51.446;-2.000;2023-04-21T02:35:26;100797.22;;;5.21;100.00
55301;BME280;58302;51.446;-2.000;2023-04-21T02:37:52;100793.72;;;5.21;100.00
55301;BME280;58302;51.446;-2.000;2023-04-21T02:40:18;100795.75;;;5.25;100.00
55301;BME280;58302;51.446;-2.000;2023-04-21T02:42:44;100804.66;;;5.26;100.00
55301;BME280;58302;51.446;-2.000;2023-04-21T02:45:10;100799.88;;;5.28;100.00
55301;BME280;58302;51.446;-2.000;2023-04-21T02:47:36;100796.81;;;5.24;100.00
55301;BME280;58302;51.446;-2.000;2023-04-21T02:50:02;100794.09;;;5.24;100.00
55301;BME280;58302;51.446;-2.000;2023-04-21T02:52:28;100792.81;;;5.27;100.00
55301;BME280;58302;51.446;-2.000;2023-04-21T02:54:54;100787.44;;;5.27;100.00
55301;BME280;58302;51.446;-2.000;2023-04-21T02:57:20;100781.03;;;5.28;100.00
55301;BME280;58302;51.446;-2.000;2023-04-21T02:59:46;100774.44;;;5.24;100.00
55301;BME280;58302;51.446;-2.000;2023-04-21T03:02:12;100775.09;;;5.19;100.00
55301;BME280;58302;51.446;-2.000;2023-04-21T03:04:38;100774.09;;;5.14;100.00
55301;BME280;58302;51.446;-2.000;2023-04-21T03:07:04;100775.38;;;5.11;100.00
55301;BME280;58302;51.446;-2.000;2023-04-21T03:09:30;100779.81;;;4.99;100.00
55301;BME280;58302;51.446;-2.000;2023-04-21T03:11:56;100784.44;;;4.92;100.00
55301;BME280;58302;51.446;-2.000;2023-04-21T03:14:22;100786.97;;;4.87;100.00
55301;BME280;58302;51.446;-2.000;2023-04-21T03:16:48;100781.69;;;4.73;100.00
55301;BME280;58302;51.446;-2.000;2023-04-21T03:19:14;100795.34;;;4.72;100.00
55301;BME280;58302;51.446;-2.000;2023-04-21T03:21:40;100787.50;;;4.70;100.00
55301;BME280;58302;51.446;-2.000;2023-04-21T03:24:06;100792.47;;;4.73;100.00
55301;BME280;58302;51.446;-2.000;2023-04-21T03:26:32;100789.88;;;4.85;100.00
55301;BME280;58302;51.446;-2.000;2023-04-21T03:28:58;100790.06;;;4.90;100.00
55301;BME280;58302;51.446;-2.000;2023-04-21T03:31:24;100790.88;;;4.91;100.00
55301;BME280;58302;51.446;-2.000;2023-04-21T03:33:50;100792.28;;;4.93;100.00
55301;BME280;58302;51.446;-2.000;2023-04-21T03:36:16;100790.56;;;5.06;100.00
55301;BME280;58302;51.446;-2.000;2023-04-21T03:38:42;100788.97;;;5.16;100.00
55301;BME280;58302;51.446;-2.000;2023-04-21T03:41:08;100784.44;;;5.17;100.00
55301;BME280;58302;51.446;-2.000;2023-04-21T03:43:33;100775.47;;;5.23;100.00
55301;BME280;58302;51.446;-2.000;2023-04-21T03:46:00;100777.72;;;5.26;100.00
55301;BME280;58302;51.446;-2.000;2023-04-21T03:48:27;100762.97;;;5.28;100.00
55301;BME280;58302;51.446;-2.000;2023-04-21T03:50:53;100763.19;;;5.27;100.00
55301;BME280;58302;51.446;-2.000;2023-04-21T03:53:19;100755.09;;;5.27;100.00
55301;BME280;58302;51.446;-2.000;2023-04-21T03:55:45;100751.31;;;5.35;100.00
55301;BME280;58302;51.446;-2.000;2023-04-21T03:58:16;100754.81;;;5.35;100.00
55301;BME280;58302;51.446;-2.000;2023-04-21T04:00:42;100752.56;;;5.32;100.00
55301;BME280;58302;51.446;-2.000;2023-04-21T04:03:08;100746.50;;;5.37;100.00
55301;BME280;58302;51.446;-2.000;2023-04-21T04:05:35;100739.25;;;5.37;100.00
55301;BME280;58302;51.446;-2.000;2023-04-21T04:08:01;100733.03;;;5.37;100.00
55301;BME280;58302;51.446;-2.000;2023-04-21T04:10:27;100729.28;;;5.38;100.00
55301;BME280;58302;51.446;-2.000;2023-04-21T04:12:53;100727.78;;;5.42;100.00
55301;BME280;58302;51.446;-2.000;2023-04-21T04:15:20;100735.44;;;5.45;100.00
55301;BME280;58302;51.446;-2.000;2023-04-21T04:17:46;100724.44;;;5.46;100.00
55301;BME280;58302;51.446;-2.000;2023-04-21T04:20:12;100727.94;;;5.47;100.00
55301;BME280;58302;51.446;-2.000;2023-04-21T04:22:38;100722.41;;;5.42;100.00
55301;BME280;58302;51.446;-2.000;2023-04-21T04:25:04;100721.97;;;5.45;100.00
55301;BME280;58302;51.446;-2.000;2023-04-21T04:27:30;100711.19;;;5.45;100.00
55301;BME280;58302;51.446;-2.000;2023-04-21T04:29:57;100709.53;;;5.44;100.00
55301;BME280;58302;51.446;-2.000;2023-04-21T04:32:22;100703.09;;;5.45;100.00
55301;BME280;58302;51.446;-2.000;2023-04-21T04:34:53;100701.44;;;5.44;100.00
55301;BME280;58302;51.446;-2.000;2023-04-21T04:37:21;100693.59;;;5.42;100.00
55301;BME280;58302;51.446;-2.000;2023-04-21T04:39:47;100696.94;;;5.38;100.00
55301;BME280;58302;51.446;-2.000;2023-04-21T04:42:12;100692.75;;;5.42;100.00
55301;BME280;58302;51.446;-2.000;2023-04-21T04:44:39;100695.47;;;5.42;100.00
55301;BME280;58302;51.446;-2.000;2023-04-21T04:47:06;100695.69;;;5.40;100.00
55301;BME280;58302;51.446;-2.000;2023-04-21T04:49:32;100693.59;;;5.42;100.00
55301;BME280;58302;51.446;-2.000;2023-04-21T04:51:58;100691.94;;;5.41;100.00
55301;BME280;58302;51.446;-2.000;2023-04-21T04:54:24;100684.91;;;5.40;100.00
55301;BME280;58302;51.446;-2.000;2023-04-21T04:56:50;100691.78;;;5.36;100.00
55301;BME280;58302;51.446;-2.000;2023-04-21T04:59:16;100692.25;;;5.33;100.00
55301;BME280;58302;51.446;-2.000;2023-04-21T05:01:42;100676.09;;;5.33;100.00
55301;BME280;58302;51.446;-2.000;2023-04-21T05:04:08;100681.00;;;5.36;100.00
55301;BME280;58302;51.446;-2.000;2023-04-21T05:06:34;100686.41;;;5.36;100.00
55301;BME280;58302;51.446;-2.000;2023-04-21T05:09:00;100679.81;;;5.32;100.00
55301;BME280;58302;51.446;-2.000;2023-04-21T05:11:26;100680.41;;;5.34;100.00
55301;BME280;58302;51.446;-2.000;2023-04-21T05:13:52;100673.59;;;5.32;100.00
55301;BME280;58302;51.446;-2.000;2023-04-21T05:16:18;100672.34;;;5.34;100.00
55301;BME280;58302;51.446;-2.000;2023-04-21T05:18:44;100668.81;;;5.34;100.00
55301;BME280;58302;51.446;-2.000;2023-04-21T05:21:10;100677.09;;;5.32;100.00
55301;BME280;58302;51.446;-2.000;2023-04-21T05:23:36;100670.81;;;5.38;100.00
55301;BME280;58302;51.446;-2.000;2023-04-21T05:26:02;100667.09;;;5.39;100.00
55301;BME280;58302;51.446;-2.000;2023-04-21T05:28:28;100666.03;;;5.40;100.00
55301;BME280;58302;51.446;-2.000;2023-04-21T05:30:55;100658.78;;;5.41;100.00
55301;BME280;58302;51.446;-2.000;2023-04-21T05:33:21;100652.56;;;5.40;100.00
55301;BME280;58302;51.446;-2.000;2023-04-21T05:35:47;100660.81;;;5.45;100.00
55301;BME280;58302;51.446;-2.000;2023-04-21T05:38:13;100661.84;;;5.44;100.00
55301;BME280;58302;51.446;-2.000;2023-04-21T05:40:39;100657.28;;;5.45;100.00
55301;BME280;58302;51.446;-2.000;2023-04-21T05:43:05;100649.19;;;5.45;100.00
55301;BME280;58302;51.446;-2.000;2023-04-21T05:45:31;100649.19;;;5.45;100.00
55301;BME280;58302;51.446;-2.000;2023-04-21T05:47:57;100645.81;;;5.49;100.00
55301;BME280;58302;51.446;-2.000;2023-04-21T05:50:23;100650.59;;;5.47;100.00
55301;BME280;58302;51.446;-2.000;2023-04-21T05:52:51;100644.16;;;5.48;100.00
55301;BME280;58302;51.446;-2.000;2023-04-21T05:55:16;100646.41;;;5.51;100.00
55301;BME280;58302;51.446;-2.000;2023-04-21T05:57:42;100646.41;;;5.51;100.00
55301;BME280;58302;51.446;-2.000;2023-04-21T06:00:09;100643.25;;;5.54;100.00
55301;BME280;58302;51.446;-2.000;2023-04-21T06:02:35;100633.31;;;5.55;100.00
55301;BME280;58302;51.446;-2.000;2023-04-21T06:05:01;100639.53;;;5.55;100.00
55301;BME280;58302;51.446;-2.000;2023-04-21T06:07:27;100630.81;;;5.53;100.00
55301;BME280;58302;51.446;-2.000;2023-04-21T06:09:52;100640.09;;;5.58;100.00
55301;BME280;58302;51.446;-2.000;2023-04-21T06:12:18;100637.66;;;5.56;100.00
55301;BME280;58302;51.446;-2.000;2023-04-21T06:14:44;100632.84;;;5.58;100.00
55301;BME280;58302;51.446;-2.000;2023-04-21T06:17:15;100632.84;;;5.58;100.00
55301;BME280;58302;51.446;-2.000;2023-04-21T06:19:41;100628.03;;;5.60;100.00
55301;BME280;58302;51.446;-2.000;2023-04-21T06:22:07;100623.16;;;5.69;100.00
55301;BME280;58302;51.446;-2.000;2023-04-21T06:24:32;100624.34;;;5.73;100.00
55301;BME280;58302;51.446;-2.000;2023-04-21T06:26:58;100618.03;;;5.79;100.00
55301;BME280;58302;51.446;-2.000;2023-04-21T06:29:24;100619.44;;;5.81;100.00
55301;BME280;58302;51.446;-2.000;2023-04-21T06:31:50;100606.69;;;5.89;100.00
55301;BME280;58302;51.446;-2.000;2023-04-21T06:34:16;100606.47;;;5.90;100.00
55301;BME280;58302;51.446;-2.000;2023-04-21T06:36:42;100590.69;;;6.05;100.00
55301;BME280;58302;51.446;-2.000;2023-04-21T06:39:08;100591.41;;;6.13;100.00
55301;BME280;58302;51.446;-2.000;2023-04-21T06:41:34;100592.59;;;6.17;100.00
55301;BME280;58302;51.446;-2.000;2023-04-21T06:44:00;100587.19;;;6.17;100.00
55301;BME280;58302;51.446;-2.000;2023-04-21T06:46:26;100575.34;;;6.18;100.00
55301;BME280;58302;51.446;-2.000;2023-04-21T06:48:52;100576.28;;;6.23;100.00
55301;BME280;58302;51.446;-2.000;2023-04-21T06:51:18;100567.94;;;6.25;100.00
55301;BME280;58302;51.446;-2.000;2023-04-21T06:53:44;100568.78;;;6.37;100.00
55301;BME280;58302;51.446;-2.000;2023-04-21T06:56:10;100569.00;;;6.47;100.00
55301;BME280;58302;51.446;-2.000;2023-04-21T06:58:36;100552.47;;;6.55;100.00
55301;BME280;58302;51.446;-2.000;2023-04-21T07:01:02;100554.34;;;6.67;100.00
55301;BME280;58302;51.446;-2.000;2023-04-21T07:03:28;100542.94;;;6.76;100.00
55301;BME280;58302;51.446;-2.000;2023-04-21T07:05:54;100530.47;;;6.75;100.00
55301;BME280;58302;51.446;-2.000;2023-04-21T07:08:20;100532.25;;;6.81;100.00
55301;BME280;58302;51.446;-2.000;2023-04-21T07:10:46;100525.84;;;6.99;100.00
55301;BME280;58302;51.446;-2.000;2023-04-21T07:13:15;100523.09;;;7.11;100.00
55301;BME280;58302;51.446;-2.000;2023-04-21T07:15:42;100519.09;;;7.13;100.00
55301;BME280;58302;51.446;-2.000;2023-04-21T07:18:08;100506.75;;;7.18;100.00
55301;BME280;58302;51.446;-2.000;2023-04-21T07:20:34;100502.97;;;7.19;100.00
55301;BME280;58302;51.446;-2.000;2023-04-21T07:23:00;100502.50;;;7.22;100.00
55301;BME280;58302;51.446;-2.000;2023-04-21T07:25:26;100499.28;;;7.25;100.00
55301;BME280;58302;51.446;-2.000;2023-04-21T07:27:52;100498.66;;;7.34;100.00
55301;BME280;58302;51.446;-2.000;2023-04-21T07:30:18;100495.31;;;7.27;100.00
55301;BME280;58302;51.446;-2.000;2023-04-21T07:32:45;100486.38;;;7.27;100.00
55301;BME280;58302;51.446;-2.000;2023-04-21T07:35:11;100486.38;;;7.27;100.00
55301;BME280;58302;51.446;-2.000;2023-04-21T07:37:37;100485.00;;;7.41;100.00
55301;BME280;58302;51.446;-2.000;2023-04-21T07:40:09;100478.53;;;7.42;100.00
55301;BME280;58302;51.446;-2.000;2023-04-21T07:42:35;100477.22;;;7.45;100.00
55301;BME280;58302;51.446;-2.000;2023-04-21T07:45:01;100472.38;;;7.47;100.00
55301;BME280;58302;51.446;-2.000;2023-04-21T07:47:27;100477.22;;;7.45;100.00
55301;BME280;58302;51.446;-2.000;2023-04-21T07:49:53;100473.22;;;7.47;100.00
55301;BME280;58302;51.446;-2.000;2023-04-21T07:52:19;100470.75;;;7.46;100.00
55301;BME280;58302;51.446;-2.000;2023-04-21T07:54:45;100465.03;;;7.42;100.00
55301;BME280;58302;51.446;-2.000;2023-04-21T07:57:11;100467.47;;;7.44;100.00
55301;BME280;58302;51.446;-2.000;2023-04-21T07:59:37;100470.75;;;7.46;100.00
55301;BME280;58302;51.446;-2.000;2023-04-21T08:02:04;100469.53;;;7.53;100.00
55301;BME280;58302;51.446;-2.000;2023-04-21T08:04:30;100461.19;;;7.72;100.00
55301;BME280;58302;51.446;-2.000;2023-04-21T08:06:56;100453.06;;;7.88;100.00
55301;BME280;58302;51.446;-2.000;2023-04-21T08:09:22;100447.53;;;8.00;100.00
55301;BME280;58302;51.446;-2.000;2023-04-21T08:11:48;100434.16;;;8.10;100.00
55301;BME280;58302;51.446;-2.000;2023-04-21T08:14:15;100436.75;;;8.22;100.00
55301;BME280;58302;51.446;-2.000;2023-04-21T08:16:41;100435.31;;;8.14;100.00
55301;BME280;58302;51.446;-2.000;2023-04-21T08:19:08;100434.16;;;8.10;100.00
55301;BME280;58302;51.446;-2.000;2023-04-21T08:21:35;100433.13;;;7.95;100.00
55301;BME280;58302;51.446;-2.000;2023-04-21T08:24:01;100428.81;;;7.77;100.00
55301;BME280;58302;51.446;-2.000;2023-04-21T08:26:27;100421.41;;;7.72;100.00
55301;BME280;58302;51.446;-2.000;2023-04-21T08:28:55;100407.00;;;7.66;100.00
55301;BME280;58302;51.446;-2.000;2023-04-21T08:31:21;100406.19;;;7.66;100.00
55301;BME280;58302;51.446;-2.000;2023-04-21T08:33:47;100414.72;;;7.75;100.00
55301;BME280;58302;51.446;-2.000;2023-04-21T08:36:13;100392.97;;;7.86;100.00
55301;BME280;58302;51.446;-2.000;2023-04-21T08:38:41;100388.59;;;8.02;100.00
55301;BME280;58302;51.446;-2.000;2023-04-21T08:41:08;100393.38;;;8.17;100.00
55301;BME280;58302;51.446;-2.000;2023-04-21T08:43:40;100389.25;;;8.31;100.00
55301;BME280;58302;51.446;-2.000;2023-04-21T08:46:07;100373.75;;;8.27;100.00
55301;BME280;58302;51.446;-2.000;2023-04-21T08:48:35;100372.81;;;8.38;100.00
55301;BME280;58302;51.446;-2.000;2023-04-21T08:51:02;100369.53;;;8.58;100.00
55301;BME280;58302;51.446;-2.000;2023-04-21T08:53:28;100370.22;;;8.70;100.00
55301;BME280;58302;51.446;-2.000;2023-04-21T08:55:57;100366.31;;;8.88;100.00
55301;BME280;58302;51.446;-2.000;2023-04-21T08:58:23;100374.94;;;9.12;100.00
55301;BME280;58302;51.446;-2.000;2023-04-21T09:00:49;100366.69;;;8.96;100.00
55301;BME280;58302;51.446;-2.000;2023-04-21T09:03:25;100365.56;;;8.65;100.00
55301;BME280;58302;51.446;-2.000;2023-04-21T09:06:00;100380.69;;;8.61;100.00
55301;BME280;58302;51.446;-2.000;2023-04-21T09:08:27;100375.38;;;8.71;100.00
55301;BME280;58302;51.446;-2.000;2023-04-21T09:10:55;100374.59;;;8.49;100.00
55301;BME280;58302;51.446;-2.000;2023-04-21T09:13:29;100379.69;;;8.45;100.00
55301;BME280;58302;51.446;-2.000;2023-04-21T09:15:56;100385.06;;;8.24;100.00
55301;BME280;58302;51.446;-2.000;2023-04-21T09:18:24;100394.72;;;8.14;100.00
55301;BME280;58302;51.446;-2.000;2023-04-21T09:20:58;100394.78;;;8.19;100.00
55301;BME280;58302;51.446;-2.000;2023-04-21T09:23:29;100397.09;;;8.11;100.00
55301;BME280;58302;51.446;-2.000;2023-04-21T09:25:55;100392.69;;;8.05;100.00
55301;BME280;58302;51.446;-2.000;2023-04-21T09:28:21;100393.34;;;7.95;100.00
55301;BME280;58302;51.446;-2.000;2023-04-21T09:30:53;100397.75;;;8.01;100.00
55301;BME280;58302;51.446;-2.000;2023-04-21T09:33:19;100400.72;;;8.00;100.00
55301;BME280;58302;51.446;-2.000;2023-04-21T09:35:46;100394.34;;;7.89;100.00
55301;BME280;58302;51.446;-2.000;2023-04-21T09:38:12;100396.00;;;7.73;100.00
55301;BME280;58302;51.446;-2.000;2023-04-21T09:40:39;100399.72;;;7.50;100.00
55301;BME280;58302;51.446;-2.000;2023-04-21T09:43:06;100404.38;;;7.21;100.00
55301;BME280;58302;51.446;-2.000;2023-04-21T09:45:32;100409.94;;;7.15;100.00
55301;BME280;58302;51.446;-2.000;2023-04-21T09:48:00;100413.38;;;7.10;100.00
55301;BME280;58302;51.446;-2.000;2023-04-21T09:50:28;100416.78;;;7.05;100.00
55301;BME280;58302;51.446;-2.000;2023-04-21T09:52:55;100415.72;;;7.06;100.00
55301;BME280;58302;51.446;-2.000;2023-04-21T09:55:27;100410.41;;;7.11;100.00
55301;BME280;58302;51.446;-2.000;2023-04-21T09:57:59;100410.97;;;7.13;100.00
55301;BME280;58302;51.446;-2.000;2023-04-21T10:00:26;100408.88;;;7.16;100.00
55301;BME280;58302;51.446;-2.000;2023-04-21T10:02:57;100408.28;;;7.30;100.00
55301;BME280;58302;51.446;-2.000;2023-04-21T10:05:25;100402.25;;;7.40;100.00
55301;BME280;58302;51.446;-2.000;2023-04-21T10:07:51;100383.31;;;7.40;100.00
55301;BME280;58302;51.446;-2.000;2023-04-21T10:10:27;100383.75;;;7.49;100.00
55301;BME280;58302;51.446;-2.000;2023-04-21T10:12:53;100379.97;;;7.50;100.00
55301;BME280;58302;51.446;-2.000;2023-04-21T10:15:33;100373.91;;;7.59;100.00
55301;BME280;58302;51.446;-2.000;2023-04-21T10:18:17;100369.78;;;7.57;100.00
55301;BME280;58302;51.446;-2.000;2023-04-21T10:21:07;100368.31;;;7.66;100.00
55301;BME280;58302;51.446;-2.000;2023-04-21T10:23:46;100378.16;;;7.55;100.00
55301;BME280;58302;51.446;-2.000;2023-04-21T10:26:33;100377.53;;;7.48;100.00
55301;BME280;58302;51.446;-2.000;2023-04-21T10:29:03;100373.75;;;7.49;100.00
55301;BME280;58302;51.446;-2.000;2023-04-21T10:31:33;100383.91;;;7.42;100.00
55301;BME280;58302;51.446;-2.000;2023-04-21T10:39:24;100377.91;;;7.57;100.00
55301;BME280;58302;51.446;-2.000;2023-04-21T10:41:54;100377.81;;;7.69;100.00
55301;BME280;58302;51.446;-2.000;2023-04-21T10:44:21;100374.06;;;7.70;100.00
55301;BME280;58302;51.446;-2.000;2023-04-21T10:46:48;100358.66;;;7.70;100.00
55301;BME280;58302;51.446;-2.000;2023-04-21T10:49:29;100375.09;;;7.69;100.00
55301;BME280;58302;51.446;-2.000;2023-04-21T10:54:25;100382.41;;;7.51;100.00
55301;BME280;58302;51.446;-2.000;2023-04-21T10:56:56;100375.53;;;7.60;100.00
55301;BME280;58302;51.446;-2.000;2023-04-21T10:59:25;100375.19;;;7.74;100.00
55301;BME280;58302;51.446;-2.000;2023-04-21T11:01:51;100362.41;;;7.86;100.00
55301;BME280;58302;51.446;-2.000;2023-04-21T11:04:19;100352.31;;;7.81;100.00
55301;BME280;58302;51.446;-2.000;2023-04-21T11:07:10;100345.91;;;7.87;100.00
55301;BME280;58302;51.446;-2.000;2023-04-21T11:09:37;100343.94;;;7.83;100.00
55301;BME280;58302;51.446;-2.000;2023-04-21T11:12:10;100347.28;;;7.90;100.00
55301;BME280;58302;51.446;-2.000;2023-04-21T11:14:38;100348.16;;;7.96;100.00
55301;BME280;58302;51.446;-2.000;2023-04-21T11:17:11;100345.66;;;7.89;100.00
55301;BME280;58302;51.446;-2.000;2023-04-21T11:19:37;100346.91;;;7.81;100.00
55301;BME280;58302;51.446;-2.000;2023-04-21T11:22:05;100340.97;;;7.84;100.00
55301;BME280;58302;51.446;-2.000;2023-04-21T11:24:32;100338.34;;;8.11;100.00
55301;BME280;58302;51.446;-2.000;2023-04-21T11:26:58;100334.97;;;8.43;100.00
55301;BME280;58302;51.446;-2.000;2023-04-21T11:29:28;100330.59;;;8.64;100.00
55301;BME280;58302;51.446;-2.000;2023-04-21T11:31:54;100322.03;;;8.50;100.00
55301;BME280;58302;51.446;-2.000;2023-04-21T11:34:21;100310.41;;;8.28;100.00
55301;BME280;58302;51.446;-2.000;2023-04-21T11:36:47;100310.78;;;8.14;100.00
55301;BME280;58302;51.446;-2.000;2023-04-21T11:39:15;100320.41;;;8.05;100.00
55301;BME280;58302;51.446;-2.000;2023-04-21T11:41:47;100322.91;;;7.90;100.00
55301;BME280;58302;51.446;-2.000;2023-04-21T11:44:32;100330.16;;;7.84;100.00
55301;BME280;58302;51.446;-2.000;2023-04-21T11:46:58;100337.81;;;7.71;100.00
55301;BME280;58302;51.446;-2.000;2023-04-21T11:49:26;100346.38;;;7.46;100.00
55301;BME280;58302;51.446;-2.000;2023-04-21T11:51:55;100345.72;;;7.22;100.00
55301;BME280;58302;51.446;-2.000;2023-04-21T11:54:21;100359.22;;;7.05;100.00
55301;BME280;58302;51.446;-2.000;2023-04-21T11:56:49;100365.72;;;7.04;100.00
55301;BME280;58302;51.446;-2.000;2023-04-21T11:59:18;100372.59;;;7.11;100.00
55301;BME280;58302;51.446;-2.000;2023-04-21T12:01:54;100378.81;;;7.29;100.00
55301;BME280;58302;51.446;-2.000;2023-04-21T12:04:22;100376.94;;;7.46;100.00
55301;BME280;58302;51.446;-2.000;2023-04-21T12:07:01;100372.09;;;7.65;100.00
55301;BME280;58302;51.446;-2.000;2023-04-21T12:09:29;100369.38;;;7.82;100.00
55301;BME280;58302;51.446;-2.000;2023-04-21T12:11:56;100354.16;;;7.98;100.00
55301;BME280;58302;51.446;-2.000;2023-04-21T12:14:24;100338.47;;;8.22;100.00
55301;BME280;58302;51.446;-2.000;2023-04-21T12:16:56;100330.44;;;8.27;100.00
55301;BME280;58302;51.446;-2.000;2023-04-21T12:19:42;100309.91;;;8.31;100.00
55301;BME280;58302;51.446;-2.000;2023-04-21T12:22:14;100301.66;;;8.42;100.00
55301;BME280;58302;51.446;-2.000;2023-04-21T12:24:41;100294.19;;;8.55;100.00
55301;BME280;58302;51.446;-2.000;2023-04-21T12:27:09;100290.63;;;8.76;100.00
55301;BME280;58302;51.446;-2.000;2023-04-21T12:29:36;100276.09;;;8.87;100.00
55301;BME280;58302;51.446;-2.000;2023-04-21T12:32:05;100290.81;;;8.96;100.00
55301;BME280;58302;51.446;-2.000;2023-04-21T12:34:33;100281.69;;;9.08;100.00
55301;BME280;58302;51.446;-2.000;2023-04-21T12:37:02;100282.56;;;9.18;100.00
55301;BME280;58302;51.446;-2.000;2023-04-21T12:39:28;100268.19;;;9.18;100.00
55301;BME280;58302;51.446;-2.000;2023-04-21T12:41:54;100272.41;;;9.04;100.00
55301;BME280;58302;51.446;-2.000;2023-04-21T12:44:20;100268.22;;;8.86;100.00
55301;BME280;58302;51.446;-2.000;2023-04-21T12:46:46;100267.50;;;8.95;100.00
55301;BME280;58302;51.446;-2.000;2023-04-21T12:49:17;100266.03;;;9.20;100.00
55301;BME280;58302;51.446;-2.000;2023-04-21T12:51:44;100279.09;;;9.70;100.00